createdAt,value
2024-02-08T00:04:38.711Z,7.90
2024-02-08T00:09:42.576Z,7.90
2024-02-08T00:14:49.123Z,7.80
2024-02-08T00:19:52.811Z,7.80
2024-02-08T00:24:59.264Z,7.90
2024-02-08T00:30:04.446Z,7.80
2024-02-08T00:35:11.638Z,7.80
2024-02-08T00:40:16.562Z,7.90
2024-02-08T00:45:23.770Z,7.90
2024-02-08T00:50:27.484Z,7.90
2024-02-08T00:55:31.415Z,8.00
2024-02-08T01:00:39.648Z,8.00
2024-02-08T01:05:44.933Z,8.10
2024-02-08T01:10:48.509Z,8.00
2024-02-08T01:15:55.214Z,8.10
2024-02-08T01:21:00.458Z,8.10
2024-02-08T01:26:04.767Z,8.10
2024-02-08T01:31:10.156Z,8.00
2024-02-08T01:36:14.831Z,8.00
2024-02-08T01:41:18.416Z,8.00
2024-02-08T01:46:23.985Z,8.10
2024-02-08T01:51:29.038Z,8.10
2024-02-08T01:56:33.714Z,8.10
2024-02-08T02:01:39.119Z,8.10
2024-02-08T02:06:43.985Z,8.10
2024-02-08T02:11:52.923Z,8.10
2024-02-08T02:17:09.784Z,8.10
2024-02-08T02:22:16.371Z,8.10
2024-02-08T02:27:20.538Z,8.10
2024-02-08T02:32:25.173Z,8.20
2024-02-08T02:37:34.881Z,8.20
2024-02-08T02:42:38.569Z,8.20
2024-02-08T02:47:44.356Z,8.10
2024-02-08T02:52:51.457Z,8.10
2024-02-08T02:57:59.345Z,8.10
2024-02-08T03:03:08.905Z,8.10
2024-02-08T03:08:14.130Z,8.10
2024-02-08T03:13:17.785Z,8.20
2024-02-08T03:18:25.116Z,8.20
2024-02-08T03:23:30.152Z,8.20
2024-02-08T03:28:33.818Z,8.20
2024-02-08T03:33:39.033Z,8.20
2024-02-08T03:38:45.592Z,8.10
2024-02-08T03:43:49.406Z,8.20
2024-02-08T03:48:56.343Z,8.20
2024-02-08T03:54:01.464Z,8.30
2024-02-08T03:59:09.162Z,8.30
2024-02-08T04:04:17.685Z,8.30
2024-02-08T04:09:35.909Z,8.30
2024-02-08T04:14:56.775Z,8.40
2024-02-08T04:20:17.754Z,8.40
2024-02-08T04:25:40.042Z,8.40
2024-02-08T04:31:00.680Z,8.50
2024-02-08T04:36:22.468Z,8.60
2024-02-08T04:41:45.029Z,8.50
2024-02-08T04:47:05.544Z,8.60
2024-02-08T04:52:26.572Z,8.50
2024-02-08T04:57:31.571Z,8.50
2024-02-08T05:02:35.653Z,8.40
2024-02-08T05:07:39.203Z,8.30
2024-02-08T05:12:48.157Z,8.30
2024-02-08T05:17:53.270Z,8.40
2024-02-08T05:22:58.275Z,8.40
2024-02-08T05:28:05.965Z,8.40
2024-02-08T05:33:10.302Z,8.50
2024-02-08T05:38:17.472Z,8.40
2024-02-08T05:43:29.662Z,8.60
2024-02-08T05:48:34.867Z,8.60
2024-02-08T05:53:42.941Z,8.50
2024-02-08T05:58:47.998Z,8.40
2024-02-08T06:03:51.691Z,8.50
2024-02-08T06:08:58.116Z,8.50
2024-02-08T06:14:08.135Z,8.50
2024-02-08T06:19:13.568Z,8.50
2024-02-08T06:24:37.533Z,8.60
2024-02-08T06:29:48.008Z,8.60
2024-02-08T06:34:57.463Z,8.60
2024-02-08T06:40:05.974Z,8.60
2024-02-08T06:45:28.893Z,8.70
2024-02-08T06:50:49.705Z,8.80
2024-02-08T06:56:10.677Z,8.80
2024-02-08T07:01:33.302Z,8.70
2024-02-08T07:06:54.437Z,8.70
2024-02-08T07:12:15.489Z,8.70
2024-02-08T07:17:36.491Z,8.80
2024-02-08T07:22:57.130Z,8.70
2024-02-08T07:28:46.610Z,8.80
2024-02-08T07:34:08.848Z,8.80
2024-02-08T07:39:36.487Z,8.90
2024-02-08T07:44:40.568Z,9.00
2024-02-08T07:49:46.229Z,9.00
2024-02-08T07:54:52.030Z,8.80
2024-02-08T08:00:01.416Z,8.70
2024-02-08T08:05:16.655Z,8.70
2024-02-08T08:10:32.196Z,8.80
2024-02-08T08:15:51.139Z,8.90
2024-02-08T08:20:59.241Z,9.10
2024-02-08T08:26:22.785Z,9.20
2024-02-08T08:31:40.443Z,9.30
2024-02-08T08:42:32.068Z,9.40
2024-02-08T08:47:35.676Z,9.50
2024-02-08T08:53:18.633Z,9.80
2024-02-08T09:04:42.576Z,10.20
2024-02-08T09:10:11.090Z,10.40
2024-02-08T09:15:28.453Z,10.30
2024-02-08T09:20:37.492Z,10.30
2024-02-08T09:25:50.395Z,10.50
2024-02-08T09:31:14.260Z,10.50
2024-02-08T09:36:21.237Z,10.70
2024-02-08T09:41:29.274Z,11.60
2024-02-08T09:46:58.197Z,11.60
2024-02-08T09:52:18.318Z,11.60
2024-02-08T09:57:24.041Z,11.50
2024-02-08T10:02:35.696Z,11.60
2024-02-08T10:07:39.641Z,11.50
2024-02-08T10:12:55.437Z,11.50
2024-02-08T10:18:12.045Z,11.50
2024-02-08T10:23:34.995Z,11.50
2024-02-08T10:28:48.491Z,11.30
2024-02-08T10:33:59.043Z,11.00
2024-02-08T10:39:09.688Z,10.80
2024-02-08T10:44:26.253Z,10.70
2024-02-08T10:49:37.336Z,10.70
2024-02-08T10:54:45.492Z,10.70
2024-02-08T10:59:54.066Z,11.00
2024-02-08T11:05:14.670Z,11.30
2024-02-08T11:10:25.753Z,11.40
2024-02-08T11:15:40.828Z,11.40
2024-02-08T11:20:44.929Z,11.30
2024-02-08T11:25:50.400Z,11.50
2024-02-08T11:30:56.224Z,11.50
2024-02-08T11:36:15.752Z,11.70
2024-02-08T11:41:27.338Z,11.90
2024-02-08T11:46:39.793Z,12.00
2024-02-08T11:51:47.065Z,11.90
2024-02-08T11:56:52.629Z,12.00
2024-02-08T12:02:00.247Z,12.20
2024-02-08T12:07:05.933Z,12.30
2024-02-08T12:12:11.558Z,12.60
2024-02-08T12:17:24.337Z,12.50
2024-02-08T12:22:28.009Z,12.60
2024-02-08T12:27:32.898Z,12.70
2024-02-08T12:32:45.871Z,12.90
2024-02-08T12:37:52.069Z,13.20
2024-02-08T12:42:59.706Z,13.00
2024-02-08T12:48:06.187Z,12.80
2024-02-08T12:53:14.295Z,12.80
2024-02-08T12:58:36.485Z,13.20
2024-02-08T13:03:41.760Z,13.10
2024-02-08T13:09:18.306Z,13.20
2024-02-08T13:14:22.044Z,13.20
2024-02-08T13:19:31.753Z,13.00
2024-02-08T13:24:41.437Z,12.70
2024-02-08T13:29:50.511Z,12.80
2024-02-08T13:34:56.936Z,12.80
2024-02-08T13:40:04.909Z,13.10
2024-02-08T13:45:15.872Z,13.30
2024-02-08T13:50:24.124Z,13.50
2024-02-08T13:55:45.791Z,13.50
2024-02-08T14:00:59.917Z,13.40
2024-02-08T14:06:11.380Z,13.40
2024-02-08T14:11:18.161Z,13.40
2024-02-08T14:16:32.406Z,13.20
2024-02-08T14:21:46.472Z,13.10
2024-02-08T14:26:50.681Z,13.10
2024-02-08T14:31:54.384Z,12.90
2024-02-08T14:37:05.351Z,12.70
2024-02-08T14:42:13.326Z,12.60
2024-02-08T14:47:23.407Z,12.50
2024-02-08T14:52:30.989Z,12.50
2024-02-08T14:57:41.191Z,12.50
2024-02-08T15:02:57.135Z,12.50
2024-02-08T15:08:10.051Z,12.40
2024-02-08T15:13:20.753Z,12.20
2024-02-08T15:18:40.680Z,12.00
2024-02-08T15:24:20.513Z,11.90
2024-02-08T15:29:44.074Z,11.90
2024-02-08T15:35:01.066Z,11.70
2024-02-08T15:40:16.024Z,11.70
2024-02-08T15:45:23.151Z,11.60
2024-02-08T15:50:34.369Z,11.60
2024-02-08T15:55:44.329Z,11.50
2024-02-08T16:01:06.332Z,11.50
2024-02-08T16:06:24.911Z,11.40
2024-02-08T16:11:31.512Z,11.30
2024-02-08T16:16:36.036Z,11.20
2024-02-08T16:21:40.647Z,11.30
2024-02-08T16:26:55.098Z,11.20
2024-02-08T16:32:08.543Z,11.10
2024-02-08T16:37:31.835Z,10.90
2024-02-08T16:42:38.745Z,10.80
2024-02-08T16:47:53.444Z,10.70
2024-02-08T16:53:00.888Z,10.70
2024-02-08T16:58:18.470Z,10.50
2024-02-08T17:03:52.088Z,10.40
2024-02-08T17:09:13.826Z,10.50
2024-02-08T17:14:34.652Z,10.50
2024-02-08T17:19:53.456Z,10.60
2024-02-08T17:25:20.562Z,10.70
2024-02-08T17:30:48.525Z,10.60
2024-02-08T17:35:54.008Z,10.40
2024-02-08T17:41:01.013Z,10.30
2024-02-08T17:46:08.748Z,10.20
2024-02-08T17:51:12.941Z,10.00
2024-02-08T17:56:18.905Z,10.00
2024-02-08T18:01:33.514Z,10.10
2024-02-08T18:06:37.721Z,10.00
2024-02-08T18:11:43.784Z,9.90
2024-02-08T18:16:48.739Z,9.80
2024-02-08T18:21:53.101Z,9.70
2024-02-08T18:27:02.201Z,9.70
2024-02-08T18:32:12.892Z,9.70
2024-02-08T18:37:26.651Z,9.80
2024-02-08T18:42:33.892Z,9.70
2024-02-08T18:47:39.912Z,9.70
2024-02-08T18:52:44.131Z,9.70
2024-02-08T18:57:47.771Z,9.70
2024-02-08T19:02:56.544Z,9.70
2024-02-08T19:08:02.351Z,9.70
2024-02-08T19:13:11.942Z,9.60
2024-02-08T19:18:22.795Z,9.50
2024-02-08T19:23:35.487Z,9.30
2024-02-08T19:28:41.571Z,9.30
2024-02-08T19:33:52.619Z,9.20
2024-02-08T19:38:57.221Z,9.00
2024-02-08T19:44:03.703Z,8.90
2024-02-08T19:49:09.758Z,8.80
2024-02-08T19:54:21.237Z,8.80
2024-02-08T19:59:28.532Z,8.80
2024-02-08T20:04:39.497Z,9.00
2024-02-08T20:09:47.717Z,9.00
2024-02-08T20:14:51.984Z,8.80
2024-02-08T20:19:58.653Z,8.70
2024-02-08T20:25:06.903Z,8.60
2024-02-08T20:30:22.742Z,8.50
2024-02-08T20:35:29.766Z,8.40
2024-02-08T20:40:33.530Z,8.30
2024-02-08T20:45:37.135Z,8.20
2024-02-08T20:50:42.195Z,8.20
2024-02-08T20:55:48.771Z,8.20
2024-02-08T21:00:54.440Z,8.20
2024-02-08T21:06:00.025Z,8.20
2024-02-08T21:11:03.665Z,8.30
2024-02-08T21:16:07.536Z,8.30
2024-02-08T21:21:13.906Z,8.40
2024-02-08T21:26:19.749Z,8.50
2024-02-08T21:31:25.646Z,8.60
2024-02-08T21:36:30.910Z,8.70
2024-02-08T21:41:34.568Z,8.70
2024-02-08T21:46:38.329Z,8.70
2024-02-08T21:51:44.552Z,8.60
2024-02-08T21:56:50.180Z,8.50
2024-02-08T22:01:54.005Z,8.40
2024-02-08T22:06:59.341Z,8.40
2024-02-08T22:12:05.739Z,8.40
2024-02-08T22:17:11.053Z,8.40
2024-02-08T22:22:16.859Z,8.40
2024-02-08T22:27:20.598Z,8.40
2024-02-08T22:32:26.529Z,8.40
2024-02-08T22:37:31.590Z,8.40
2024-02-08T22:42:37.742Z,8.30
2024-02-08T22:47:42.000Z,8.50
2024-02-08T22:52:48.350Z,8.40
2024-02-08T22:57:54.929Z,8.40
2024-02-08T23:03:08.899Z,8.40
2024-02-08T23:08:16.835Z,8.30
2024-02-08T23:13:20.686Z,8.40
2024-02-08T23:18:31.410Z,8.30
2024-02-08T23:23:40.154Z,8.20
2024-02-08T23:28:45.810Z,8.20
2024-02-08T23:33:50.021Z,8.20
2024-02-08T23:38:55.196Z,8.30
2024-02-08T23:43:59.257Z,8.40
2024-02-08T23:49:02.871Z,8.40
2024-02-08T23:54:08.068Z,8.50
2024-02-08T23:59:12.643Z,8.50
